Time;durP1;ratioP1;P1;durP2;ratioP2;P2;SDS_P1;SDS_P2;PMS_P1;PMS_P2;Temp;Humidity;BMP_temperature;BMP_pressure;BME280_temperature;BME280_humidity;BME280_pressure;Samples;Min_cycle;Max_cycle;Signal;HPM_P1;HPM_P2
2021/03/05 00:04:18;;;;;;;15.15;6.78;;;;;;;2.63;100.00;101454.00;9958286;29;20057;-78
2021/03/05 00:09:21;;;;;;;24.40;9.15;;;;;;;2.65;100.00;101454.00;9953249;29;20183;-77
2021/03/05 00:14:30;;;;;;;14.73;5.80;;;;;;;2.79;100.00;101462.69;9985417;29;20050;-77
2021/03/05 00:19:38;;;;;;;15.70;5.63;;;;;;;2.72;100.00;101460.06;9967925;29;20438;-77
2021/03/05 00:25:04;;;;;;;15.67;7.07;;;;;;;2.70;100.00;101464.38;9983720;29;20500;-78
2021/03/05 00:30:09;;;;;;;13.27;6.32;;;;;;;2.67;100.00;101450.53;9952862;29;20323;-78
2021/03/05 00:35:16;;;;;;;15.63;5.90;;;;;;;2.72;100.00;101466.13;9983581;29;20465;-77
2021/03/05 00:40:25;;;;;;;11.20;6.65;;;;;;;2.59;100.00;101454.88;9958766;29;20089;-78
2021/03/05 00:45:28;;;;;;;20.15;7.07;;;;;;;2.65;100.00;101465.28;9989715;29;20065;-78
2021/03/05 00:50:39;;;;;;;13.38;5.95;;;;;;;2.50;100.00;101447.03;9975996;29;20532;-77
2021/03/05 00:55:46;;;;;;;15.15;6.20;;;;;;;2.52;100.00;101458.28;9973521;29;20093;-78
2021/03/05 01:00:57;;;;;;;14.50;6.35;;;;;;;2.27;100.00;101436.56;9975785;29;20123;-78
2021/03/05 01:06:24;;;;;;;14.43;6.00;;;;;;;2.27;100.00;101440.88;9988720;29;20061;-78
2021/03/05 01:11:38;;;;;;;13.00;5.32;;;;;;;2.23;100.00;101452.16;9989125;29;20054;-78
2021/03/05 01:16:43;;;;;;;12.60;6.07;;;;;;;2.25;100.00;101455.63;9973020;29;20445;-77
2021/03/05 01:21:48;;;;;;;17.67;7.15;;;;;;;2.40;100.00;101479.06;9989020;29;20059;-77
2021/03/05 01:26:52;;;;;;;17.90;5.72;;;;;;;2.28;100.00;101459.09;9987165;29;20050;-77
2021/03/05 01:31:54;;;;;;;12.13;5.50;;;;;;;2.28;100.00;101473.81;9987844;29;20063;-78
2021/03/05 01:36:56;;;;;;;15.82;5.45;;;;;;;2.31;100.00;101476.44;9987539;29;20050;-78
2021/03/05 01:41:59;;;;;;;15.32;5.25;;;;;;;2.27;100.00;101464.28;9972411;29;20082;-77
2021/03/05 01:47:04;;;;;;;15.90;5.93;;;;;;;2.24;100.00;101453.91;9986920;29;20054;-77
2021/03/05 01:52:06;;;;;;;;;;;;;;;2.32;100.00;101462.59;9970787;29;20058;-78
2021/03/05 01:57:15;;;;;;;17.55;5.72;;;;;;;2.33;100.00;101466.94;9972533;29;19925;-77
2021/03/05 02:02:28;;;;;;;17.25;6.85;;;;;;;2.22;100.00;101459.09;9986662;29;20089;-77
2021/03/05 02:07:32;;;;;;;18.38;6.60;;;;;;;2.17;100.00;101459.94;9971374;29;20058;-77
2021/03/05 02:12:56;;;;;;;15.90;6.72;;;;;;;2.17;100.00;101475.53;9971361;29;20065;-78
2021/03/05 02:18:22;;;;;;;21.40;7.95;;;;;;;2.14;100.00;101491.09;9970604;29;20058;-77
2021/03/05 02:24:02;;;;;;;23.75;7.40;;;;;;;2.11;100.00;101502.34;9971036;29;20565;-78
2021/03/05 02:29:43;;;;;;;22.58;7.50;;;;;;;2.27;100.00;101531.88;9954647;29;20062;-78
2021/03/05 02:34:50;;;;;;;18.27;8.48;;;;;;;2.34;100.00;101544.06;9971270;29;20461;-78
2021/03/05 02:40:05;;;;;;;21.35;8.48;;;;;;;2.34;100.00;101548.41;9970480;29;20471;-77
2021/03/05 02:45:20;;;;;;;19.15;7.90;;;;;;;2.30;100.00;101557.91;9986033;29;20119;-77
2021/03/05 02:50:27;;;;;;;15.40;7.43;;;;;;;2.39;100.00;101572.69;9969797;29;20500;-78
2021/03/05 02:55:35;;;;;;;19.92;8.80;;;;;;;2.43;100.00;101571.81;9985127;29;20492;-77
2021/03/05 03:00:54;;;;;;;16.67;8.80;;;;;;;2.45;100.00;101591.78;9970149;29;20472;-78
2021/03/05 03:06:00;;;;;;;21.30;9.02;;;;;;;2.44;100.00;101604.75;9984664;29;20051;-78
2021/03/05 03:11:07;;;;;;;21.98;11.02;;;;;;;2.53;100.00;101626.47;9969178;29;20058;-78
2021/03/05 03:16:12;;;;;;;25.40;12.40;;;;;;;2.46;100.00;101629.03;9984000;29;20438;-77
2021/03/05 03:21:18;;;;;;;28.13;13.50;;;;;;;2.54;100.00;101643.84;9969381;29;20065;-78
2021/03/05 03:26:24;;;;;;;30.92;15.93;;;;;;;2.53;100.00;101647.28;9984076;29;20504;-78
2021/03/05 03:31:32;;;;;;;26.80;16.58;;;;;;;2.61;100.00;101663.81;9984688;29;20047;-78
2021/03/05 03:36:37;;;;;;;28.20;17.83;;;;;;;2.65;100.00;101675.97;9969183;29;20050;-77
2021/03/05 03:41:47;;;;;;;28.63;18.13;;;;;;;2.67;100.00;101682.06;9969218;29;20054;-78
2021/03/05 03:46:49;;;;;;;28.70;17.70;;;;;;;2.61;100.00;101669.00;9968107;29;20055;-78
2021/03/05 03:52:01;;;;;;;32.65;20.10;;;;;;;2.65;100.00;101672.50;9953690;29;20054;-78
2021/03/05 03:57:08;;;;;;;28.38;18.40;;;;;;;2.72;100.00;101676.00;9983924;29;20054;-79
2021/03/05 04:02:12;;;;;;;24.80;18.63;;;;;;;2.76;100.00;101670.84;9984375;29;20062;-77
2021/03/05 04:07:18;;;;;;;26.35;18.45;;;;;;;2.70;100.00;101652.56;9954006;29;20541;-78
2021/03/05 04:12:29;;;;;;;27.05;18.55;;;;;;;2.70;100.00;101636.97;9984953;29;20137;-78
2021/03/05 04:17:31;;;;;;;31.00;21.40;;;;;;;2.66;100.00;101643.91;9975134;29;20077;-78
2021/03/05 04:22:37;;;;;;;26.15;18.60;;;;;;;2.66;100.00;101630.91;9961634;29;20091;-78
2021/03/05 04:27:46;;;;;;;26.02;18.35;;;;;;;2.59;100.00;101612.66;9976155;29;20394;-78
2021/03/05 04:32:50;;;;;;;22.92;17.38;;;;;;;2.61;100.00;101616.97;9975470;29;20099;-77
2021/03/05 04:37:53;;;;;;;24.40;17.20;;;;;;;2.62;100.00;101623.94;9975097;29;20055;-78
2021/03/05 04:42:58;;;;;;;21.02;15.02;;;;;;;2.56;100.00;101617.84;9974930;29;20092;-78
2021/03/05 04:48:00;;;;;;;20.58;14.73;;;;;;;2.56;100.00;101626.50;9974697;29;20506;-78
2021/03/05 04:53:05;;;;;;;18.92;14.57;;;;;;;2.50;100.00;101626.50;9959875;29;20061;-78
2021/03/05 04:58:09;;;;;;;18.52;14.48;;;;;;;2.58;100.00;101637.81;9974025;29;20046;-77
2021/03/05 05:03:14;;;;;;;;;;;;;;;2.54;100.00;101630.81;9989455;29;20058;-78
2021/03/05 05:08:18;;;;;;;21.55;13.73;;;;;;;2.52;100.00;101634.28;9987339;29;19925;-77
2021/03/05 05:13:25;;;;;;;21.35;15.48;;;;;;;2.43;100.00;101627.28;9988860;29;20149;-77
2021/03/05 05:18:30;;;;;;;17.73;12.77;;;;;;;2.38;100.00;101636.81;9988026;29;20051;-77
2021/03/05 05:23:51;;;;;;;20.20;14.45;;;;;;;2.37;100.00;101640.25;9974476;29;20074;-77
2021/03/05 05:28:55;;;;;;;18.95;13.98;;;;;;;2.33;100.00;101633.31;9973326;29;20161;-78
2021/03/05 05:34:03;;;;;;;18.90;12.00;;;;;;;2.24;100.00;101628.06;9988741;29;20384;-78
2021/03/05 05:39:05;;;;;;;22.27;14.43;;;;;;;2.18;100.00;101628.88;9972185;29;20094;-78
2021/03/05 05:44:09;;;;;;;18.17;12.05;;;;;;;2.20;100.00;101637.56;9989125;29;20480;-78
2021/03/05 05:49:19;;;;;;;17.88;11.82;;;;;;;2.09;100.00;101638.38;9985993;29;20107;-78
2021/03/05 05:54:24;;;;;;;15.82;11.38;;;;;;;2.04;100.00;101634.84;9972328;29;20556;-77
2021/03/05 05:59:28;;;;;;;;;;;;;;;1.96;100.00;101632.19;9987444;29;20485;-78
2021/03/05 06:04:35;;;;;;;23.27;15.07;;;;;;;1.72;100.00;101617.31;9987889;29;19951;-77
2021/03/05 06:09:40;;;;;;;21.58;15.88;;;;;;;1.60;100.00;101637.09;9986727;29;20423;-78
2021/03/05 06:14:55;;;;;;;14.27;10.05;;;;;;;1.54;100.00;101645.72;9963484;29;20089;-78
2021/03/05 06:20:07;;;;;;;10.73;7.05;;;;;;;1.48;100.00;101661.25;9957533;29;20149;-77
2021/03/05 06:25:35;;;;;;;7.88;6.10;;;;;;;1.52;100.00;101679.44;9985100;29;20445;-77
2021/03/05 06:30:40;;;;;;;9.95;6.63;;;;;;;1.40;100.00;101665.47;9970626;29;20062;-78
2021/03/05 06:35:56;;;;;;;19.33;10.90;;;;;;;1.49;100.00;101692.41;9985834;29;20058;-78
2021/03/05 06:41:34;;;;;;;8.18;5.60;;;;;;;1.23;100.00;101665.31;9955907;29;20054;-77
2021/03/05 06:46:41;;;;;;;8.13;5.60;;;;;;;1.12;100.00;101679.88;9955521;29;20062;-77
2021/03/05 06:51:54;;;;;;;10.60;6.20;;;;;;;1.12;100.00;101677.28;9955204;29;20050;-78
2021/03/05 06:57:01;;;;;;;8.75;5.63;;;;;;;1.21;100.00;101700.75;9969373;29;20069;-79
2021/03/05 07:02:36;;;;;;;8.43;5.93;;;;;;;1.49;100.00;101727.91;10527901;27;20518;-76
2021/03/05 07:07:44;;;;;;;10.18;5.95;;;;;;;1.48;100.00;101727.03;10508158;28;20063;-78
2021/03/05 07:13:04;;;;;;;8.18;5.53;;;;;;;1.80;100.00;101763.72;10515705;28;20040;-79
2021/03/05 07:18:11;;;;;;;7.28;4.53;;;;;;;2.74;100.00;101835.59;10510412;27;20416;-76
2021/03/05 07:23:15;;;;;;;8.13;5.07;;;;;;;3.53;99.16;101846.47;10526966;28;20450;-78
2021/03/05 07:28:20;;;;;;;6.53;4.57;;;;;;;3.55;94.02;101803.94;10520659;28;20105;-81
2021/03/05 07:33:26;;;;;;;5.88;4.20;;;;;;;3.91;90.82;101813.63;10517088;28;20053;-79
2021/03/05 07:38:33;;;;;;;6.25;3.67;;;;;;;4.59;86.56;101851.97;10502486;28;20411;-77
2021/03/05 07:43:46;;;;;;;5.82;3.88;;;;;;;4.90;82.54;101819.75;10524252;28;20523;-78
2021/03/05 07:48:49;;;;;;;6.50;3.72;;;;;;;4.85;82.12;101838.91;10528531;28;20044;-78
2021/03/05 07:53:55;;;;;;;7.18;3.47;;;;;;;4.81;80.71;101827.56;10528332;28;20040;-78
2021/03/05 07:58:57;;;;;;;6.25;3.30;;;;;;;5.49;78.51;101877.94;10485534;28;20047;-74
2021/03/05 08:04:00;;;;;;;12.43;6.75;;;;;;;5.53;76.59;101845.69;10508472;28;20055;-75
2021/03/05 08:09:15;;;;;;;4.95;3.60;;;;;;;5.16;76.81;101810.97;10525909;28;20524;-75
2021/03/05 08:14:18;;;;;;;5.82;3.20;;;;;;;5.66;76.07;101874.41;10515295;28;20044;-76
2021/03/05 08:19:20;;;;;;;7.38;3.45;;;;;;;5.72;75.34;101865.66;10472269;28;20127;-77
2021/03/05 08:24:27;;;;;;;7.03;3.92;;;;;;;6.30;73.31;101892.41;10477261;28;20055;-75
2021/03/05 08:29:47;;;;;;;4.80;3.20;;;;;;;7.15;71.25;101938.06;10460640;28;20461;-76
2021/03/05 08:34:51;;;;;;;4.15;2.80;;;;;;;7.29;69.17;101903.84;10460956;28;20114;-77
2021/03/05 08:40:16;;;;;;;4.75;3.08;;;;;;;7.57;67.56;101866.81;10473016;28;20083;-75
2021/03/05 08:45:31;;;;;;;5.72;2.75;;;;;;;8.35;66.17;101924.47;10480072;28;20102;-75
2021/03/05 08:50:39;;;;;;;7.15;3.08;;;;;;;8.34;65.11;101888.59;10458666;28;20045;-75
2021/03/05 08:55:45;;;;;;;6.40;3.13;;;;;;;8.42;63.33;101849.09;10465181;28;20052;-78
2021/03/05 09:00:48;;;;;;;4.43;2.70;;;;;;;8.81;61.50;101836.19;10510521;28;20055;-76
2021/03/05 09:05:58;;;;;;;6.40;3.15;;;;;;;9.07;61.39;101881.28;10500534;28;20515;-73
2021/03/05 09:11:08;;;;;;;7.65;2.90;;;;;;;9.26;60.43;101887.94;10505192;28;20079;-73
2021/03/05 09:16:11;;;;;;;4.78;2.70;;;;;;;10.00;59.12;101927.72;10491618;28;20397;-74
2021/03/05 09:21:22;;;;;;;5.57;2.83;;;;;;;9.24;59.45;101824.00;10484838;28;20044;-72
2021/03/05 09:26:31;;;;;;;5.80;3.00;;;;;;;9.83;58.87;101921.94;10500357;28;20083;-73
2021/03/05 09:31:46;;;;;;;6.15;3.13;;;;;;;9.44;57.65;101837.63;10500719;28;20467;-73
2021/03/05 09:36:53;;;;;;;4.63;3.15;;;;;;;10.24;55.73;101871.91;10529497;28;20041;-78
2021/03/05 09:42:16;;;;;;;6.25;3.80;;;;;;;9.60;56.52;101826.81;10532554;28;20041;-73
2021/03/05 09:47:20;;;;;;;6.40;3.60;;;;;;;11.39;54.80;101960.47;10454006;28;20076;-76
2021/03/05 09:52:26;;;;;;;8.50;4.05;;;;;;;11.30;53.72;101827.94;10483638;28;20048;-74
2021/03/05 09:57:29;;;;;;;5.13;3.60;;;;;;;10.19;56.21;101886.09;10485929;28;20048;-72
2021/03/05 10:02:38;;;;;;;6.47;4.10;;;;;;;10.68;56.77;101959.63;10474482;28;20078;-72
2021/03/05 10:07:41;;;;;;;7.47;4.75;;;;;;;9.95;56.44;101828.69;10499295;28;20049;-79
2021/03/05 10:12:59;;;;;;;6.93;5.20;;;;;;;7.74;60.76;101832.53;10489206;28;20384;-77
2021/03/05 10:18:05;;;;;;;8.57;5.88;;;;;;;10.90;56.08;101984.56;10491289;28;20549;-77
2021/03/05 10:23:26;;;;;;;8.80;6.20;;;;;;;11.84;55.02;102012.16;10497279;28;20040;-76
2021/03/05 10:28:31;;;;;;;6.90;5.30;;;;;;;9.21;56.76;101750.41;10510834;28;20094;-75
2021/03/05 10:33:37;;;;;;;6.32;5.15;;;;;;;7.28;62.48;101784.19;10499395;28;20049;-77
2021/03/05 10:38:39;;;;;;;8.95;5.82;;;;;;;7.08;66.46;101882.22;10499237;28;20036;-74
2021/03/05 10:43:40;;;;;;;8.25;6.15;;;;;;;9.40;59.14;101887.69;10498904;28;20350;-73
2021/03/05 10:48:47;;;;;;;7.97;5.78;;;;;;;12.01;55.06;101984.38;10476602;28;20045;-74
2021/03/05 10:54:00;;;;;;;9.23;5.65;;;;;;;9.12;58.15;101855.78;10496142;28;20036;-73
2021/03/05 10:59:04;;;;;;;8.93;6.75;;;;;;;8.79;58.09;101806.47;10498880;28;20053;-72
2021/03/05 11:04:07;;;;;;;9.23;6.63;;;;;;;7.97;60.07;101767.47;10508080;28;20071;-73
2021/03/05 11:09:12;;;;;;;7.78;5.20;;;;;;;10.66;58.08;102043.13;10487215;28;20045;-73
2021/03/05 11:14:20;;;;;;;8.18;6.07;;;;;;;10.93;54.32;101910.69;10538975;28;20430;-75
2021/03/05 11:19:29;;;;;;;7.05;5.95;;;;;;;10.54;53.66;101840.50;10509245;28;20044;-72
2021/03/05 11:24:31;;;;;;;7.10;5.77;;;;;;;8.73;57.99;101858.22;10511026;28;20094;-74
2021/03/05 11:29:37;;;;;;;8.75;6.50;;;;;;;11.07;55.56;102028.13;10519522;28;20052;-74
2021/03/05 11:34:40;;;;;;;9.70;7.68;;;;;;;11.70;52.38;101986.09;10513168;28;20116;-73
2021/03/05 12:01:46;;;;;;;7.68;5.30;;;;;;;12.53;48.45;101986.38;10254041;23;20048;-73
2021/03/05 12:06:48;;;;;;;5.95;4.50;;;;;;;11.25;46.35;101790.28;10152596;29;20143;-72
2021/03/05 12:11:50;;;;;;;8.73;5.15;;;;;;;9.93;48.59;101741.84;10181207;29;20044;-72
2021/03/05 12:17:02;;;;;;;7.35;4.63;;;;;;;10.96;48.92;101907.94;10166381;29;20040;-71
2021/03/05 12:22:06;;;;;;;5.85;3.70;;;;;;;12.40;46.76;101976.19;10160802;29;20055;-73
2021/03/05 12:27:08;;;;;;;7.50;4.32;;;;;;;11.78;45.82;101826.59;10181079;29;20044;-74
2021/03/05 12:32:14;;;;;;;7.00;4.10;;;;;;;13.46;44.86;101970.16;10165724;29;20045;-72
2021/03/05 12:37:16;;;;;;;8.65;5.28;;;;;;;13.45;44.65;101899.59;10180199;29;20064;-69
2021/03/05 12:42:17;;;;;;;8.57;4.50;;;;;;;13.91;44.08;101969.41;10181883;29;20055;-72
2021/03/05 12:47:36;;;;;;;7.32;4.57;;;;;;;12.11;46.07;101884.59;10156854;29;20076;-72
2021/03/05 12:52:47;;;;;;;5.00;3.60;;;;;;;9.92;46.70;101686.59;10162645;29;20079;-72
2021/03/05 12:57:48;;;;;;;6.70;3.28;;;;;;;10.63;45.93;101779.63;10129244;29;20477;-73
2021/03/05 13:02:49;;;;;;;6.57;3.28;;;;;;;10.56;44.73;101759.63;10162101;29;20064;-73
2021/03/05 13:07:51;;;;;;;6.03;3.60;;;;;;;10.86;46.20;101856.38;10176529;29;20048;-73
2021/03/05 13:12:52;;;;;;;6.45;3.53;;;;;;;9.92;45.17;101713.78;10185718;29;20137;-74
2021/03/05 13:18:06;;;;;;;6.55;3.75;;;;;;;9.13;47.30;101719.03;10171744;29;20331;-75
2021/03/05 13:23:08;;;;;;;6.90;3.83;;;;;;;8.06;49.86;101705.25;10187210;29;20044;-72
2021/03/05 13:28:10;;;;;;;5.85;3.50;;;;;;;8.02;49.21;101698.31;10144500;29;20055;-76
2021/03/05 13:33:12;;;;;;;5.15;2.80;;;;;;;7.66;47.95;101623.69;10145378;29;20123;-74
2021/03/05 13:38:14;;;;;;;4.75;2.47;;;;;;;7.93;48.01;101683.59;10194701;29;20051;-72
2021/03/05 13:43:17;;;;;;;6.80;3.22;;;;;;;7.90;49.39;101726.47;10179964;29;20048;-75
2021/03/05 13:48:24;;;;;;;4.70;2.63;;;;;;;7.45;49.87;101680.81;10205367;29;20039;-76
2021/03/05 13:53:26;;;;;;;5.07;2.25;;;;;;;7.60;50.48;101734.81;10222078;29;20047;-74
2021/03/05 13:58:28;;;;;;;5.20;2.40;;;;;;;7.09;50.59;101678.69;10239323;29;20492;-74
2021/03/05 14:03:29;;;;;;;3.45;2.20;;;;;;;7.57;49.41;101711.25;10212234;29;20059;-74
2021/03/05 14:08:30;;;;;;;5.25;2.53;;;;;;;7.56;49.51;101713.00;10193645;29;20048;-75
2021/03/05 14:13:33;;;;;;;5.40;2.13;;;;;;;7.37;50.39;101715.88;10184068;29;20099;-76
2021/03/05 14:18:49;;;;;;;4.97;1.85;;;;;;;7.16;48.76;101656.75;10148162;29;20044;-77
2021/03/05 14:23:50;;;;;;;5.13;2.60;;;;;;;7.42;49.67;101724.56;10160939;29;20063;-75
2021/03/05 14:28:51;;;;;;;5.75;2.90;;;;;;;7.43;50.13;101744.66;10169983;29;20040;-76
2021/03/05 14:33:53;;;;;;;5.00;2.65;;;;;;;6.92;49.42;101657.94;10182931;29;20090;-76
2021/03/05 14:38:55;;;;;;;3.88;1.65;;;;;;;7.03;48.12;101657.81;10160827;29;20147;-75
2021/03/05 14:43:57;;;;;;;3.70;1.92;;;;;;;7.27;48.96;101723.03;10177816;29;20058;-74
2021/03/05 14:49:09;;;;;;;3.55;1.73;;;;;;;7.53;50.59;101794.31;10177259;29;20048;-74
2021/03/05 14:54:10;;;;;;;4.55;2.20;;;;;;;7.21;51.06;101765.00;10176718;29;20048;-74
2021/03/05 14:59:11;;;;;;;3.97;2.60;;;;;;;6.90;51.61;101716.47;10175817;29;20347;-72
2021/03/05 15:04:12;;;;;;;3.65;1.52;;;;;;;6.48;52.52;101724.75;10176357;29;20056;-72
2021/03/05 15:09:14;;;;;;;6.15;2.10;;;;;;;6.42;51.21;101705.63;10177370;29;20095;-74
2021/03/05 15:14:16;;;;;;;37.40;33.47;;;;;;;7.19;50.77;101778.16;10177130;29;20055;-74
2021/03/05 15:19:28;;;;;;;179.45;120.40;;;;;;;6.67;51.26;101706.25;10176456;29;20143;-72
2021/03/05 15:24:30;;;;;;;12.65;9.25;;;;;;;6.43;52.05;101721.34;10180125;29;20370;-76
2021/03/05 15:29:31;;;;;;;28.02;22.33;;;;;;;6.42;51.98;101724.84;10163055;29;20101;-77
2021/03/05 15:34:33;;;;;;;17.13;15.32;;;;;;;6.15;51.58;101683.19;10179978;29;20067;-77
2021/03/05 15:39:35;;;;;;;17.52;13.30;;;;;;;6.03;52.76;101735.59;10179144;29;20049;-77
2021/03/05 15:44:36;;;;;;;14.25;12.95;;;;;;;5.94;51.57;101692.06;10163227;29;20047;-77
2021/03/05 15:49:52;;;;;;;4.57;2.13;;;;;;;5.79;52.33;101689.56;10193912;29;20045;-77
2021/03/05 15:54:53;;;;;;;5.47;2.17;;;;;;;5.82;52.54;101726.16;10179270;29;20079;-77
2021/03/05 15:59:54;;;;;;;5.82;1.98;;;;;;;6.06;53.03;101772.22;10177673;29;20052;-77
2021/03/05 16:04:55;;;;;;;5.70;2.03;;;;;;;5.66;54.00;101740.19;10176894;29;20108;-77
2021/03/05 16:09:57;;;;;;;4.65;2.30;;;;;;;5.49;53.85;101728.97;10192606;29;20088;-77
2021/03/05 16:14:58;;;;;;;9.75;8.93;;;;;;;5.59;53.75;101767.25;10192898;29;20119;-76
2021/03/05 16:20:11;;;;;;;6.93;5.05;;;;;;;5.55;53.25;101755.94;10175332;29;20055;-76
2021/03/05 16:25:14;;;;;;;12.75;10.02;;;;;;;5.52;53.79;101763.81;10177038;29;20063;-76
2021/03/05 16:30:16;;;;;;;21.95;19.55;;;;;;;5.29;54.18;101752.56;10174903;29;20072;-76
2021/03/05 16:35:17;;;;;;;6.22;3.72;;;;;;;5.29;54.50;101779.56;10176631;29;20048;-76
2021/03/05 16:40:18;;;;;;;4.68;3.20;;;;;;;5.18;54.35;101775.28;10174744;29;20024;-75
2021/03/05 16:45:20;;;;;;;6.32;3.80;;;;;;;5.17;54.80;101795.31;10158502;29;20083;-75
2021/03/05 16:50:41;;;;;;;6.07;5.13;;;;;;;5.00;55.26;101783.16;10175520;29;20077;-75
2021/03/05 16:55:42;;;;;;;6.22;4.43;;;;;;;5.00;55.49;101809.28;10175479;29;20049;-75
2021/03/05 17:00:46;;;;;;;5.00;3.45;;;;;;;4.99;54.51;101803.19;10189703;29;20378;-75
2021/03/05 17:05:48;;;;;;;8.13;6.97;;;;;;;4.87;55.00;101816.25;10175090;29;20443;-76
2021/03/05 17:10:50;;;;;;;4.03;3.40;;;;;;;4.59;55.88;101807.59;10179312;29;20131;-75
2021/03/05 17:15:51;;;;;;;5.72;5.10;;;;;;;4.57;56.99;101853.69;10168768;29;20056;-77
2021/03/05 17:21:04;;;;;;;9.20;4.60;;;;;;;4.50;57.34;101862.41;10175503;29;20080;-78
2021/03/05 17:26:05;;;;;;;6.72;5.38;;;;;;;4.32;58.62;101886.72;10174300;29;20108;-77
2021/03/05 17:31:07;;;;;;;10.48;5.50;;;;;;;4.23;59.19;101906.69;10173713;29;20045;-77
2021/03/05 17:36:09;;;;;;;6.68;2.97;;;;;;;4.06;60.54;101919.69;10176053;29;20124;-76
2021/03/05 17:41:11;;;;;;;5.47;3.80;;;;;;;4.06;60.19;101923.16;10176390;29;20060;-77
2021/03/05 17:46:12;;;;;;;5.22;2.25;;;;;;;3.94;61.16;101935.25;10158731;29;20084;-77
2021/03/05 17:51:25;;;;;;;5.28;2.25;;;;;;;3.92;61.01;101940.50;10174759;29;20045;-77
2021/03/05 17:56:27;;;;;;;6.00;2.17;;;;;;;3.81;61.31;101939.56;10175597;29;20054;-76
2021/03/05 18:01:33;;;;;;;4.55;2.10;;;;;;;3.51;63.46;101942.00;10174523;29;20052;-76
2021/03/05 18:06:34;;;;;;;4.15;2.28;;;;;;;3.18;66.97;101964.34;10175237;29;20049;-76
2021/03/05 18:11:36;;;;;;;4.32;2.60;;;;;;;3.34;66.11;102007.91;10175636;29;20112;-75
2021/03/05 18:16:53;;;;;;;7.22;2.60;;;;;;;3.43;66.29;102028.78;10170491;29;20052;-76
2021/03/05 18:21:55;;;;;;;6.40;3.70;;;;;;;3.20;65.81;102019.03;10196424;29;20055;-76
2021/03/05 18:26:56;;;;;;;5.72;2.80;;;;;;;3.10;66.67;102028.50;10181259;29;20032;-76
2021/03/05 18:32:05;;;;;;;3.90;2.25;;;;;;;2.90;67.74;102030.94;10180539;29;20076;-76
2021/03/05 18:37:06;;;;;;;6.78;3.38;;;;;;;2.84;69.30;102050.81;10180669;29;20060;-76
2021/03/05 18:42:08;;;;;;;4.95;2.90;;;;;;;2.72;70.67;102063.69;10195036;29;20075;-76
2021/03/05 18:47:09;;;;;;;6.32;2.47;;;;;;;2.50;71.69;102071.25;10163480;29;20124;-75
2021/03/05 18:52:11;;;;;;;4.50;3.08;;;;;;;2.37;73.38;102092.75;10181053;29;20056;-75
2021/03/05 18:57:13;;;;;;;8.38;3.53;;;;;;;2.36;73.86;102124.78;10196232;29;20056;-75
2021/03/05 19:02:14;;;;;;;8.35;4.05;;;;;;;2.31;74.06;102138.59;10180683;29;20048;-76
2021/03/05 19:07:16;;;;;;;9.02;4.50;;;;;;;2.14;74.86;102147.03;10178357;29;20055;-76
2021/03/05 19:12:18;;;;;;;7.88;4.50;;;;;;;1.59;74.67;102118.44;10179945;29;20520;-75
2021/03/05 19:17:19;;;;;;;7.00;5.10;;;;;;;1.68;75.60;102162.72;10163395;29;20063;-75
2021/03/05 19:22:33;;;;;;;4.97;3.58;;;;;;;1.50;75.16;102171.97;10177939;29;20041;-75
2021/03/05 19:27:35;;;;;;;8.00;4.22;;;;;;;1.68;75.31;102184.38;10178555;29;20112;-75
2021/03/05 19:32:36;;;;;;;5.78;4.15;;;;;;;1.57;76.27;102185.06;10178753;29;20052;-75
2021/03/05 19:37:38;;;;;;;5.95;4.10;;;;;;;1.43;76.24;102193.44;10194326;29;20084;-76
2021/03/05 19:42:39;;;;;;;6.97;4.30;;;;;;;1.48;76.46;102209.13;10178238;29;20048;-76
2021/03/05 19:47:41;;;;;;;7.55;4.38;;;;;;;1.54;77.21;102227.41;10175835;29;20052;-76
2021/03/05 19:52:56;;;;;;;6.05;4.22;;;;;;;1.20;77.49;102199.06;10177527;29;20051;-76
2021/03/05 19:57:57;;;;;;;7.88;5.10;;;;;;;1.19;78.51;102231.94;10179359;29;20072;-75
2021/03/05 20:02:59;;;;;;;7.82;4.85;;;;;;;1.19;79.71;102244.91;10178282;29;20048;-76
2021/03/05 20:08:01;;;;;;;8.05;5.05;;;;;;;1.21;80.00;102244.94;10196853;29;20049;-75
2021/03/05 20:13:02;;;;;;;10.45;5.85;;;;;;;1.26;80.10;102272.72;10184335;29;20066;-77
2021/03/05 20:18:04;;;;;;;11.40;6.13;;;;;;;1.14;80.22;102264.72;10183390;29;20079;-76
2021/03/05 20:23:19;;;;;;;;;;;;;;;1.06;80.04;102277.53;10169793;29;20049;-76
2021/03/05 20:28:20;;;;;;;6.93;4.75;;;;;;;0.91;79.79;102281.50;10182611;29;19935;-75
2021/03/05 20:33:22;;;;;;;7.00;5.38;;;;;;;0.83;80.16;102286.53;10197585;29;20044;-76
2021/03/05 20:38:24;;;;;;;7.20;4.72;;;;;;;0.68;80.55;102275.78;10182564;29;20032;-75
2021/03/05 20:43:25;;;;;;;8.25;5.30;;;;;;;0.64;81.18;102294.72;10182399;29;20040;-75
2021/03/05 20:48:26;;;;;;;7.93;5.53;;;;;;;0.65;81.43;102305.16;10182552;29;20107;-75
2021/03/05 20:53:48;;;;;;;10.15;5.93;;;;;;;0.63;82.08;102313.72;10179844;29;20044;-75
2021/03/05 20:58:50;;;;;;;8.45;5.65;;;;;;;0.50;82.21;102298.72;10180420;29;20048;-75
2021/03/05 21:03:53;;;;;;;11.07;8.30;;;;;;;0.14;82.62;102284.00;10181229;29;20045;-75
2021/03/05 21:08:54;;;;;;;11.23;7.28;;;;;;;-0.06;84.10;102290.38;10196314;29;20080;-75
2021/03/05 21:13:55;;;;;;;12.38;7.63;;;;;;;-0.03;85.29;102311.19;10181849;29;20044;-75
2021/03/05 21:18:56;;;;;;;10.43;6.55;;;;;;;0.17;84.73;102342.81;10180559;29;20057;-76
2021/03/05 21:24:05;;;;;;;9.82;6.55;;;;;;;0.29;85.47;102356.97;10180096;29;20032;-76
2021/03/05 21:29:06;;;;;;;8.60;6.25;;;;;;;0.26;85.10;102366.34;10182233;29;20044;-76
2021/03/05 21:34:07;;;;;;;9.32;6.28;;;;;;;0.26;84.74;102366.34;10201338;29;20163;-76
2021/03/05 21:39:09;;;;;;;10.75;7.70;;;;;;;0.24;85.16;102374.13;10202459;29;20028;-76
2021/03/05 21:44:10;;;;;;;10.32;8.00;;;;;;;0.18;85.17;102375.66;10187685;29;20056;-76
2021/03/05 21:49:11;;;;;;;10.43;6.72;;;;;;;0.25;85.08;102391.41;10186736;29;20075;-76
2021/03/05 21:54:27;;;;;;;9.38;6.20;;;;;;;0.10;84.99;102380.63;10201825;29;20049;-76
2021/03/05 21:59:28;;;;;;;9.70;7.53;;;;;;;-0.05;85.21;102370.72;10186453;29;20052;-76
2021/03/05 22:04:29;;;;;;;10.15;7.35;;;;;;;-0.33;85.09;102351.78;10186003;29;20050;-76
2021/03/05 22:09:49;;;;;;;9.98;6.50;;;;;;;-0.29;85.94;102370.06;10185622;29;20024;-75
2021/03/05 22:14:50;;;;;;;11.18;7.82;;;;;;;-0.27;85.89;102373.56;10185523;29;20048;-76
2021/03/05 22:19:51;;;;;;;10.57;7.18;;;;;;;-0.47;86.24;102359.16;10184541;29;20028;-76
2021/03/05 22:24:52;;;;;;;9.95;7.35;;;;;;;-0.39;86.63;102386.16;10185371;29;20115;-76
2021/03/05 22:29:53;;;;;;;10.75;7.13;;;;;;;-0.25;86.67;102402.13;10183376;29;20088;-76
2021/03/05 22:34:54;;;;;;;10.07;7.32;;;;;;;-0.39;86.77;102380.97;10184459;29;20056;-76
2021/03/05 22:39:55;;;;;;;9.30;6.35;;;;;;;-0.35;86.82;102392.31;10184932;29;20048;-76
2021/03/05 22:44:56;;;;;;;10.55;6.78;;;;;;;-0.31;86.62;102401.91;10183694;29;20121;-76
2021/03/05 22:49:58;;;;;;;9.27;6.68;;;;;;;-0.47;87.14;102377.28;10183947;29;20076;-76
2021/03/05 22:55:12;;;;;;;10.40;6.75;;;;;;;-0.70;87.70;102370.56;10199278;29;20049;-76
2021/03/05 23:00:22;;;;;;;10.73;7.60;;;;;;;-0.67;88.03;102399.97;10182774;29;20024;-76
2021/03/05 23:05:25;;;;;;;9.27;6.82;;;;;;;-0.62;88.59;102411.38;10183319;29;20084;-76
2021/03/05 23:10:30;;;;;;;9.00;6.50;;;;;;;-0.62;88.46;102406.19;10183744;29;20108;-77
2021/03/05 23:15:32;;;;;;;8.85;6.53;;;;;;;-0.96;90.15;102378.41;10183841;29;20052;-76
2021/03/05 23:20:42;;;;;;;8.98;6.25;;;;;;;-1.24;94.02;102365.44;10183139;29;20045;-76
2021/03/05 23:25:45;;;;;;;9.48;6.43;;;;;;;-1.19;96.08;102390.63;10183751;29;20048;-76
2021/03/05 23:30:46;;;;;;;8.07;5.60;;;;;;;-1.12;98.44;102408.91;10184440;29;20029;-76
2021/03/05 23:35:48;;;;;;;7.72;5.53;;;;;;;-0.91;99.63;102427.69;10184562;29;20049;-76
2021/03/05 23:40:50;;;;;;;9.63;6.53;;;;;;;-1.08;98.70;102424.56;10183791;29;20037;-76
2021/03/05 23:45:51;;;;;;;12.40;8.57;;;;;;;-1.17;97.79;102432.91;10191087;29;20047;-75
2021/03/05 23:50:53;;;;;;;11.48;8.40;;;;;;;-1.02;97.42;102448.06;10191720;29;20060;-75
2021/03/05 23:55:58;;;;;;;12.77;8.63;;;;;;;-1.18;97.72;102456.16;10189916;29;20128;-76
